createdAt,value
2023-02-22T00:01:19.451Z,20.92
2023-02-22T00:03:52.268Z,18.20
2023-02-22T00:06:21.856Z,23.05
2023-02-22T00:08:50.178Z,23.92
2023-02-22T00:11:18.035Z,28.63
2023-02-22T00:13:45.407Z,20.92
2023-02-22T00:16:18.707Z,24.60
2023-02-22T00:18:46.627Z,31.63
2023-02-22T00:21:15.584Z,25.73
2023-02-22T00:23:48.692Z,29.67
2023-02-22T00:26:20.027Z,26.95
2023-02-22T00:28:49.543Z,24.90
2023-02-22T00:31:22.808Z,23.92
2023-02-22T00:34:03.277Z,20.88
2023-02-22T00:36:30.752Z,23.23
2023-02-22T00:38:58.106Z,22.83
2023-02-22T00:41:25.659Z,22.55
2023-02-22T00:43:55.191Z,23.88
2023-02-22T00:46:22.595Z,20.35
2023-02-22T00:48:50.085Z,22.58
2023-02-22T00:51:17.757Z,38.85
2023-02-22T00:53:45.723Z,23.17
2023-02-22T00:56:15.016Z,26.25
2023-02-22T00:58:42.434Z,22.17
2023-02-22T01:01:09.895Z,83.93
2023-02-22T01:03:41.495Z,48.47
2023-02-22T01:06:08.994Z,75.53
2023-02-22T01:08:37.338Z,74.07
2023-02-22T01:11:04.986Z,39.95
2023-02-22T01:13:33.121Z,24.13
2023-02-22T01:16:01.514Z,21.08
2023-02-22T01:18:28.820Z,58.72
2023-02-22T01:20:56.286Z,255.45
2023-02-22T01:23:23.610Z,58.03
2023-02-22T01:25:52.133Z,59.97
2023-02-22T01:28:19.606Z,62.75
2023-02-22T01:30:48.635Z,37.85
2023-02-22T01:33:23.287Z,26.13
2023-02-22T01:35:51.572Z,20.10
2023-02-22T01:38:19.224Z,18.70
2023-02-22T01:40:50.682Z,31.00
2023-02-22T01:43:29.912Z,20.52
2023-02-22T01:46:21.421Z,28.40
2023-02-22T01:48:59.692Z,20.65
2023-02-22T01:51:31.391Z,20.13
2023-02-22T01:54:18.697Z,23.00
2023-02-22T01:57:01.190Z,19.35
2023-02-22T01:59:33.388Z,22.65
2023-02-22T02:02:00.935Z,17.00
2023-02-22T02:04:29.638Z,23.00
2023-02-22T02:07:01.910Z,15.88
2023-02-22T02:10:00.616Z,18.95
2023-02-22T02:12:36.071Z,18.13
2023-02-22T02:15:29.248Z,20.77
2023-02-22T02:18:01.053Z,15.40
2023-02-22T02:20:47.655Z,18.40
2023-02-22T02:23:26.182Z,23.17
2023-02-22T02:25:58.958Z,17.15
2023-02-22T02:28:30.965Z,19.90
2023-02-22T02:31:26.046Z,14.63
2023-02-22T02:34:16.875Z,13.70
2023-02-22T02:37:07.013Z,17.17
2023-02-22T02:40:11.663Z,16.38
2023-02-22T02:42:46.442Z,14.13
2023-02-22T02:45:24.264Z,17.42
2023-02-22T02:47:59.901Z,23.20
2023-02-22T02:50:34.235Z,27.08
2023-02-22T02:53:06.134Z,13.73
2023-02-22T02:55:37.022Z,21.58
2023-02-22T02:58:18.504Z,18.25
2023-02-22T03:00:46.445Z,19.75
2023-02-22T03:03:37.862Z,20.10
2023-02-22T03:06:20.712Z,11.18
2023-02-22T03:09:09.315Z,16.97
2023-02-22T03:12:12.152Z,14.45
2023-02-22T03:14:48.777Z,20.55
2023-02-22T03:17:49.374Z,22.65
2023-02-22T03:20:50.783Z,21.65
2023-02-22T03:23:44.514Z,18.52
2023-02-22T03:26:15.291Z,17.77
2023-02-22T03:28:51.524Z,18.42
2023-02-22T03:31:26.454Z,15.90
2023-02-22T03:33:59.323Z,12.00
2023-02-22T03:36:33.919Z,12.95
2023-02-22T03:39:04.555Z,17.95
2023-02-22T03:41:35.099Z,13.75
2023-02-22T03:44:09.769Z,16.10
2023-02-22T03:46:41.295Z,18.98
2023-02-22T03:49:35.765Z,17.17
2023-02-22T03:52:05.413Z,19.10
2023-02-22T03:54:33.405Z,20.50
2023-02-22T03:57:34.246Z,19.58
2023-02-22T04:00:07.128Z,11.73
2023-02-22T04:02:35.103Z,17.98
2023-02-22T04:05:03.083Z,15.18
2023-02-22T04:07:30.578Z,16.90
2023-02-22T04:09:59.195Z,17.23
2023-02-22T04:12:28.657Z,23.35
2023-02-22T04:14:55.899Z,16.52
2023-02-22T04:17:23.338Z,18.33
2023-02-22T04:19:51.723Z,19.38
2023-02-22T04:22:18.902Z,12.13
2023-02-22T04:24:46.337Z,24.67
2023-02-22T04:27:13.744Z,21.63
2023-02-22T04:29:41.463Z,19.17
2023-02-22T04:32:10.468Z,17.60
2023-02-22T04:34:37.679Z,17.88
2023-02-22T04:37:05.246Z,20.63
2023-02-22T04:39:32.700Z,17.17
2023-02-22T04:42:01.155Z,16.42
2023-02-22T04:44:28.605Z,15.95
2023-02-22T04:46:57.838Z,17.60
2023-02-22T04:49:31.785Z,15.35
2023-02-22T04:52:05.329Z,18.50
2023-02-22T04:54:32.843Z,15.23
2023-02-22T04:57:00.224Z,25.70
2023-02-22T04:59:28.665Z,15.75
2023-02-22T05:01:55.854Z,16.15
2023-02-22T05:04:24.111Z,20.75
2023-02-22T05:06:53.424Z,14.50
2023-02-22T05:09:22.147Z,20.63
2023-02-22T05:11:50.649Z,24.25
2023-02-22T05:14:18.032Z,20.55
2023-02-22T05:16:45.499Z,19.52
2023-02-22T05:19:13.045Z,26.70
2023-02-22T05:21:40.706Z,19.20
2023-02-22T05:24:09.913Z,20.58
2023-02-22T05:26:37.522Z,20.90
2023-02-22T05:29:04.787Z,18.95
2023-02-22T05:31:31.976Z,18.38
2023-02-22T05:33:59.356Z,26.88
2023-02-22T05:36:28.330Z,25.95
2023-02-22T05:38:56.412Z,19.55
2023-02-22T05:41:23.704Z,23.00
2023-02-22T05:43:51.109Z,23.08
2023-02-22T05:46:24.268Z,24.98
2023-02-22T05:48:51.698Z,30.58
2023-02-22T05:51:24.953Z,22.65
2023-02-22T05:53:52.918Z,18.80
2023-02-22T05:56:25.242Z,16.52
2023-02-22T05:58:52.995Z,24.25
2023-02-22T06:01:20.718Z,17.88
2023-02-22T06:03:50.039Z,19.55
2023-02-22T06:06:22.162Z,19.63
2023-02-22T06:08:50.895Z,17.42
2023-02-22T06:11:20.043Z,21.25
2023-02-22T06:13:52.721Z,18.38
2023-02-22T06:16:22.044Z,19.77
2023-02-22T06:18:49.750Z,19.50
2023-02-22T06:21:17.972Z,16.63
2023-02-22T06:23:48.197Z,19.27
2023-02-22T06:26:20.243Z,15.90
2023-02-22T06:28:47.608Z,13.70
2023-02-22T06:31:15.191Z,19.67
2023-02-22T06:33:42.725Z,18.73
2023-02-22T06:36:11.697Z,17.45
2023-02-22T06:38:39.226Z,19.38
2023-02-22T06:41:06.636Z,21.98
2023-02-22T06:43:34.116Z,24.23
2023-02-22T06:46:01.645Z,22.67
2023-02-22T06:48:28.988Z,27.83
2023-02-22T06:50:56.016Z,29.95
2023-02-22T06:53:23.519Z,60.08
2023-02-22T06:55:53.599Z,54.40
2023-02-22T06:58:20.925Z,42.25
2023-02-22T07:00:48.385Z,36.33
2023-02-22T07:03:16.693Z,33.63
2023-02-22T07:05:43.883Z,40.53
2023-02-22T07:08:12.292Z,40.90
2023-02-22T07:10:40.810Z,50.75
2023-02-22T07:13:09.390Z,69.88
2023-02-22T07:15:36.813Z,30.42
2023-02-22T07:18:04.717Z,46.92
2023-02-22T07:20:32.737Z,63.03
2023-02-22T07:23:01.527Z,37.53
2023-02-22T07:25:28.678Z,40.35
2023-02-22T07:27:56.013Z,52.90
2023-02-22T07:30:31.587Z,54.47
2023-02-22T07:33:01.804Z,45.42
2023-02-22T07:35:46.820Z,48.00
2023-02-22T07:38:16.372Z,44.20
2023-02-22T07:40:44.093Z,49.78
2023-02-22T07:43:22.819Z,48.60
2023-02-22T07:45:51.582Z,45.33
2023-02-22T07:48:20.902Z,40.20
2023-02-22T07:50:48.276Z,39.10
2023-02-22T07:53:30.493Z,34.70
2023-02-22T07:56:03.765Z,37.45
2023-02-22T07:58:32.954Z,28.83
2023-02-22T08:01:02.487Z,30.45
2023-02-22T08:03:34.560Z,30.67
2023-02-22T08:06:03.352Z,30.80
2023-02-22T08:08:30.633Z,31.40
2023-02-22T08:11:01.125Z,25.50
2023-02-22T08:13:29.633Z,31.20
2023-02-22T08:15:57.008Z,32.65
2023-02-22T08:18:25.824Z,29.50
2023-02-22T08:20:54.002Z,30.60
2023-02-22T08:23:25.513Z,30.20
2023-02-22T08:25:53.846Z,27.30
2023-02-22T08:28:23.813Z,28.52
2023-02-22T08:30:59.436Z,27.63
2023-02-22T08:33:26.845Z,22.77
2023-02-22T08:35:55.299Z,24.75
2023-02-22T08:38:29.192Z,23.90
2023-02-22T08:40:57.225Z,20.13
2023-02-22T08:43:24.988Z,28.70
2023-02-22T08:45:57.464Z,66.40
2023-02-22T08:48:31.316Z,27.92
2023-02-22T08:50:59.131Z,31.30
2023-02-22T08:53:27.316Z,20.23
2023-02-22T08:55:55.751Z,24.63
2023-02-22T08:58:24.309Z,28.43
2023-02-22T09:00:51.762Z,24.75
2023-02-22T09:03:19.308Z,24.90
2023-02-22T09:05:46.710Z,21.75
2023-02-22T09:08:15.553Z,17.42
2023-02-22T09:10:43.193Z,26.95
2023-02-22T09:13:12.315Z,20.55
2023-02-22T09:15:40.309Z,23.00
2023-02-22T09:18:09.530Z,19.73
2023-02-22T09:20:37.519Z,20.42
2023-02-22T09:23:09.922Z,19.58
2023-02-22T09:25:41.204Z,19.45
2023-02-22T09:28:09.458Z,17.08
2023-02-22T09:30:43.189Z,24.10
2023-02-22T09:33:13.733Z,20.83
2023-02-22T09:35:42.966Z,24.02
2023-02-22T09:38:11.644Z,26.50
2023-02-22T09:40:46.189Z,25.80
2023-02-22T09:43:25.465Z,23.95
2023-02-22T09:46:06.145Z,29.25
2023-02-22T09:48:49.194Z,23.40
2023-02-22T09:51:19.644Z,27.17
2023-02-22T09:53:50.138Z,20.13
2023-02-22T09:56:20.892Z,26.52
2023-02-22T09:58:53.054Z,25.48
2023-02-22T10:01:30.252Z,24.17
2023-02-22T10:04:23.290Z,21.48
2023-02-22T10:06:56.243Z,24.98
2023-02-22T10:09:30.754Z,26.38
2023-02-22T10:12:03.277Z,24.50
2023-02-22T10:14:43.804Z,21.20
2023-02-22T10:17:36.104Z,22.85
2023-02-22T10:20:41.349Z,18.27
2023-02-22T10:23:26.257Z,19.85
2023-02-22T10:26:00.782Z,13.38
2023-02-22T10:28:55.599Z,16.50
2023-02-22T10:31:31.598Z,17.23
2023-02-22T10:34:07.878Z,15.65
2023-02-22T10:36:39.410Z,16.95
2023-02-22T10:39:35.415Z,25.90
2023-02-22T10:42:07.214Z,21.55
2023-02-22T10:44:36.368Z,18.30
2023-02-22T10:47:07.425Z,19.23
2023-02-22T10:49:41.533Z,18.05
2023-02-22T10:52:19.719Z,19.33
2023-02-22T10:55:13.808Z,22.42
2023-02-22T10:57:42.589Z,20.27
2023-02-22T11:00:29.743Z,24.50
2023-02-22T11:03:02.171Z,27.33
2023-02-22T11:05:38.588Z,20.42
2023-02-22T11:08:16.940Z,17.35
2023-02-22T11:10:44.519Z,22.92
2023-02-22T11:13:28.315Z,17.63
2023-02-22T11:16:01.302Z,17.88
2023-02-22T11:18:35.427Z,24.10
2023-02-22T11:21:10.573Z,22.15
2023-02-22T11:23:40.607Z,17.33
2023-02-22T11:26:17.830Z,16.83
2023-02-22T11:28:56.371Z,14.98
2023-02-22T11:31:27.766Z,17.25
2023-02-22T11:34:03.265Z,17.65
2023-02-22T11:36:41.212Z,21.77
2023-02-22T11:39:34.619Z,18.10
2023-02-22T11:42:25.422Z,15.23
2023-02-22T11:45:21.776Z,15.50
2023-02-22T11:48:01.384Z,21.50
2023-02-22T11:50:40.171Z,17.95
2023-02-22T11:53:52.370Z,16.15
2023-02-22T11:56:37.953Z,19.65
2023-02-22T11:59:21.410Z,18.33
2023-02-22T12:02:00.262Z,16.65
2023-02-22T12:05:00.802Z,20.65
2023-02-22T12:07:33.264Z,18.67
2023-02-22T12:10:16.007Z,23.30
2023-02-22T12:13:10.908Z,18.40
2023-02-22T12:15:54.208Z,18.25
2023-02-22T12:18:35.986Z,19.63
2023-02-22T12:21:09.510Z,14.90
2023-02-22T12:23:46.209Z,14.85
2023-02-22T12:26:26.639Z,16.08
2023-02-22T12:29:05.544Z,21.60
2023-02-22T12:31:53.532Z,18.02
2023-02-22T12:34:29.890Z,15.55
2023-02-22T12:37:35.400Z,17.42
2023-02-22T12:40:24.406Z,19.05
2023-02-22T12:43:32.830Z,17.58
2023-02-22T12:46:13.349Z,12.23
2023-02-22T12:49:01.094Z,16.80
2023-02-22T12:51:42.391Z,16.60
2023-02-22T12:54:34.223Z,20.67
2023-02-22T12:57:33.619Z,16.98
2023-02-22T13:00:12.576Z,19.40
2023-02-22T13:02:47.963Z,17.58
2023-02-22T13:05:19.223Z,14.80
2023-02-22T13:08:02.054Z,21.95
2023-02-22T13:10:32.955Z,16.88
2023-02-22T13:13:21.852Z,18.60
2023-02-22T13:16:22.085Z,14.38
2023-02-22T13:19:15.107Z,126.50
2023-02-22T13:21:47.744Z,16.90
2023-02-22T13:24:17.791Z,13.57
2023-02-22T13:26:56.771Z,14.48
2023-02-22T13:29:47.120Z,18.33
2023-02-22T13:32:47.269Z,14.45
2023-02-22T13:35:42.352Z,11.82
2023-02-22T13:38:46.895Z,11.63
2023-02-22T13:44:07.940Z,13.82
2023-02-22T13:46:58.223Z,21.13
2023-02-22T13:50:03.548Z,17.55
2023-02-22T13:52:35.151Z,15.73
2023-02-22T13:55:12.218Z,19.65
2023-02-22T13:57:52.025Z,18.13
2023-02-22T14:00:23.224Z,13.30
2023-02-22T14:03:08.635Z,15.90
2023-02-22T14:05:44.961Z,12.55
2023-02-22T14:08:19.187Z,10.50
2023-02-22T14:10:55.374Z,7.95
2023-02-22T14:13:30.207Z,11.77
2023-02-22T14:16:02.773Z,13.93
2023-02-22T14:18:35.604Z,13.50
2023-02-22T14:21:15.994Z,21.45
2023-02-22T14:23:47.501Z,15.55
2023-02-22T14:26:35.044Z,13.88
2023-02-22T14:29:08.465Z,14.93
2023-02-22T14:31:41.372Z,16.00
2023-02-22T14:34:17.703Z,16.25
2023-02-22T14:37:25.199Z,16.77
2023-02-22T14:40:15.850Z,20.73
2023-02-22T14:42:48.626Z,18.52
2023-02-22T14:45:30.135Z,17.83
2023-02-22T14:48:25.321Z,19.52
2023-02-22T14:51:11.894Z,16.63
2023-02-22T14:53:54.544Z,26.52
2023-02-22T14:56:23.716Z,25.15
2023-02-22T14:59:17.935Z,26.67
2023-02-22T15:02:02.170Z,25.95
2023-02-22T15:04:36.139Z,22.48
2023-02-22T15:07:21.510Z,15.45
2023-02-22T15:09:50.299Z,15.27
2023-02-22T15:12:30.413Z,17.88
2023-02-22T15:15:27.809Z,15.07
2023-02-22T15:17:59.138Z,9.57
2023-02-22T15:20:35.481Z,9.32
2023-02-22T15:23:02.910Z,11.32
2023-02-22T15:25:31.756Z,12.52
2023-02-22T15:28:09.735Z,11.95
2023-02-22T15:30:38.341Z,12.65
2023-02-22T15:33:18.032Z,14.32
2023-02-22T15:35:45.314Z,13.85
2023-02-22T15:38:12.843Z,17.15
2023-02-22T15:40:43.433Z,18.85
2023-02-22T15:43:25.429Z,15.35
2023-02-22T15:45:52.979Z,14.15
2023-02-22T15:48:28.510Z,17.27
2023-02-22T15:51:12.643Z,16.42
2023-02-22T15:53:46.374Z,15.88
2023-02-22T15:58:46.769Z,22.65
2023-02-22T16:01:19.959Z,32.63
2023-02-22T16:04:00.249Z,38.15
2023-02-22T16:06:35.601Z,40.58
2023-02-22T16:09:26.398Z,53.25
2023-02-22T16:12:31.820Z,35.08
2023-02-22T16:15:17.134Z,23.13
2023-02-22T16:17:59.776Z,21.23
2023-02-22T16:20:32.813Z,17.85
2023-02-22T16:23:00.377Z,15.80
2023-02-22T16:25:36.103Z,19.85
2023-02-22T16:28:31.028Z,22.50
2023-02-22T16:31:05.611Z,20.00
2023-02-22T16:33:34.300Z,15.23
2023-02-22T16:36:06.565Z,17.83
2023-02-22T16:38:34.393Z,16.80
2023-02-22T16:41:01.842Z,15.48
2023-02-22T16:43:33.186Z,15.20
2023-02-22T16:46:02.006Z,16.90
2023-02-22T16:48:38.595Z,20.20
2023-02-22T16:51:55.919Z,22.77
2023-02-22T16:54:36.743Z,28.55
2023-02-22T16:57:06.116Z,25.85
2023-02-22T16:59:37.602Z,23.92
2023-02-22T17:02:08.272Z,24.48
2023-02-22T17:04:35.904Z,22.77
2023-02-22T17:07:05.207Z,29.65
2023-02-22T17:09:33.846Z,33.47
2023-02-22T17:12:02.316Z,31.95
2023-02-22T17:14:34.034Z,32.80
2023-02-22T17:17:01.960Z,31.88
2023-02-22T17:19:29.853Z,25.90
2023-02-22T17:21:59.544Z,28.83
2023-02-22T17:24:29.893Z,25.65
2023-02-22T17:27:00.599Z,25.65
2023-02-22T17:29:30.629Z,24.88
2023-02-22T17:31:59.231Z,25.63
2023-02-22T17:34:27.445Z,34.60
2023-02-22T17:36:55.647Z,28.40
2023-02-22T17:39:23.620Z,34.63
2023-02-22T17:41:58.057Z,35.30
2023-02-22T17:44:32.631Z,35.20
2023-02-22T17:47:02.535Z,42.72
2023-02-22T17:49:30.492Z,49.58
2023-02-22T17:52:00.151Z,63.03
2023-02-22T17:54:34.122Z,55.80
2023-02-22T17:57:02.432Z,52.92
2023-02-22T17:59:30.353Z,52.08
2023-02-22T18:01:58.696Z,52.05
2023-02-22T18:04:26.618Z,53.17
2023-02-22T18:06:55.834Z,52.83
2023-02-22T18:09:24.314Z,56.92
2023-02-22T18:11:59.327Z,70.32
2023-02-22T18:14:30.506Z,66.70
2023-02-22T18:17:01.018Z,64.50
2023-02-22T18:19:29.774Z,57.90
2023-02-22T18:22:03.810Z,71.18
2023-02-22T18:24:36.695Z,57.10
2023-02-22T18:27:07.676Z,69.13
2023-02-22T18:29:37.504Z,61.35
2023-02-22T18:32:08.925Z,64.78
2023-02-22T18:34:36.811Z,60.97
2023-02-22T18:37:06.448Z,62.47
2023-02-22T18:39:41.445Z,54.72
2023-02-22T18:42:14.180Z,45.72
2023-02-22T18:44:48.706Z,40.87
2023-02-22T18:47:17.144Z,52.70
2023-02-22T18:49:46.605Z,58.17
2023-02-22T18:52:16.559Z,61.42
2023-02-22T18:54:45.104Z,64.93
2023-02-22T18:57:14.704Z,63.30
2023-02-22T18:59:44.303Z,63.33
2023-02-22T19:02:19.936Z,57.92
2023-02-22T19:04:49.632Z,56.00
2023-02-22T19:07:20.269Z,52.92
2023-02-22T19:09:52.288Z,57.47
2023-02-22T19:12:21.401Z,66.15
2023-02-22T19:14:49.561Z,59.28
2023-02-22T19:17:17.432Z,94.28
2023-02-22T19:19:47.823Z,95.28
2023-02-22T19:22:16.772Z,50.22
2023-02-22T19:24:49.401Z,76.90
2023-02-22T19:27:27.180Z,89.90
2023-02-22T19:29:55.343Z,80.03
2023-02-22T19:32:24.295Z,60.97
2023-02-22T19:35:08.448Z,65.57
2023-02-22T19:37:37.995Z,58.15
2023-02-22T19:40:12.460Z,55.95
2023-02-22T19:42:51.151Z,43.22
2023-02-22T19:45:20.588Z,38.05
2023-02-22T19:47:57.754Z,37.75
2023-02-22T19:50:26.016Z,52.75
2023-02-22T19:52:56.792Z,59.40
2023-02-22T19:55:32.543Z,61.25
2023-02-22T19:58:03.154Z,50.70
2023-02-22T20:00:36.397Z,45.00
2023-02-22T20:03:10.042Z,36.00
2023-02-22T20:05:47.725Z,34.83
2023-02-22T20:08:16.447Z,30.23
2023-02-22T20:10:47.605Z,35.15
2023-02-22T20:13:17.894Z,31.00
2023-02-22T20:15:46.116Z,34.78
2023-02-22T20:18:14.946Z,30.13
2023-02-22T20:20:45.881Z,39.50
2023-02-22T20:23:13.960Z,56.13
2023-02-22T20:25:43.295Z,77.07
2023-02-22T20:28:14.665Z,72.32
2023-02-22T20:30:45.803Z,77.75
2023-02-22T20:33:15.302Z,104.95
2023-02-22T20:35:43.864Z,88.82
2023-02-22T20:38:14.148Z,72.60
2023-02-22T20:40:44.621Z,66.05
2023-02-22T20:43:12.763Z,72.75
2023-02-22T20:45:41.205Z,71.70
2023-02-22T20:48:13.059Z,74.57
2023-02-22T20:50:43.573Z,81.13
2023-02-22T20:53:11.993Z,74.03
2023-02-22T20:55:51.159Z,76.93
2023-02-22T20:58:23.691Z,78.63
2023-02-22T21:00:58.148Z,77.57
2023-02-22T21:03:27.665Z,72.95
2023-02-22T21:05:55.873Z,70.57
2023-02-22T21:08:31.004Z,69.32
2023-02-22T21:10:59.880Z,71.10
2023-02-22T21:13:33.831Z,69.70
2023-02-22T21:16:03.630Z,75.45
2023-02-22T21:18:31.716Z,70.30
2023-02-22T21:21:13.234Z,74.13
2023-02-22T21:23:41.889Z,86.22
2023-02-22T21:26:21.164Z,93.78
2023-02-22T21:28:55.722Z,92.22
2023-02-22T21:31:27.508Z,87.75
2023-02-22T21:34:05.017Z,81.13
2023-02-22T21:36:32.802Z,85.57
2023-02-22T21:39:08.828Z,86.28
2023-02-22T21:41:40.511Z,113.95
2023-02-22T21:44:10.104Z,99.65
2023-02-22T21:46:47.620Z,74.72
2023-02-22T21:49:15.320Z,69.28
2023-02-22T21:51:45.014Z,68.30
2023-02-22T21:54:13.169Z,75.78
2023-02-22T21:56:43.451Z,66.55
2023-02-22T21:59:19.088Z,75.68
2023-02-22T22:01:50.310Z,85.22
2023-02-22T22:04:21.260Z,75.32
2023-02-22T22:06:53.995Z,70.13
2023-02-22T22:09:24.264Z,61.40
2023-02-22T22:12:06.485Z,74.07
2023-02-22T22:14:35.477Z,92.63
2023-02-22T22:17:05.935Z,110.68
2023-02-22T22:19:39.474Z,100.38
2023-02-22T22:22:08.323Z,80.78
2023-02-22T22:24:37.365Z,79.05
2023-02-22T22:27:06.698Z,94.45
2023-02-22T22:29:34.752Z,93.78
2023-02-22T22:32:03.582Z,95.38
2023-02-22T22:34:31.331Z,71.20
2023-02-22T22:36:59.682Z,62.40
2023-02-22T22:39:29.156Z,52.95
2023-02-22T22:41:57.222Z,54.40
2023-02-22T22:44:24.594Z,53.75
2023-02-22T22:46:55.095Z,60.25
2023-02-22T22:49:25.611Z,67.43
2023-02-22T22:51:54.810Z,60.53
2023-02-22T22:54:22.062Z,63.35
2023-02-22T22:56:49.615Z,56.78
2023-02-22T22:59:18.272Z,62.28
2023-02-22T23:01:47.719Z,61.85
2023-02-22T23:04:17.208Z,61.70
2023-02-22T23:06:51.122Z,66.15
2023-02-22T23:09:28.137Z,62.42
2023-02-22T23:12:09.164Z,58.33
2023-02-22T23:14:44.415Z,58.35
2023-02-22T23:17:27.104Z,63.15
2023-02-22T23:19:54.250Z,61.03
2023-02-22T23:22:21.793Z,94.35
2023-02-22T23:24:51.204Z,87.32
2023-02-22T23:27:19.306Z,69.97
2023-02-22T23:29:47.662Z,67.28
2023-02-22T23:32:16.144Z,52.42
2023-02-22T23:34:44.257Z,56.95
2023-02-22T23:37:14.370Z,50.30
2023-02-22T23:39:43.604Z,58.20
2023-02-22T23:42:11.125Z,61.20
2023-02-22T23:44:40.080Z,60.42
2023-02-22T23:47:07.512Z,88.65
2023-02-22T23:49:38.788Z,106.47
2023-02-22T23:52:08.279Z,85.85
2023-02-22T23:54:44.241Z,78.82
2023-02-22T23:57:11.793Z,84.05
2023-02-22T23:59:45.912Z,81.45
